Christina O — C6FN7 — position and weather

sailwx.info

Track history (hours):
 
Tides and Currents Weather Stations Pressure Air Temp Water Temp Dewpoint Dewpoint Depression Visibility Wind Speed Wind Dir Waves Ship Positions

Christina O

Operator: V Ships Leisure SAM

Last reported at 2016-Jul-01 04:33 UTC. Time now 2016-Jul-01 06:27 UTC.
Position N 55°42' E 012°36'.

Length 186 m; draft 6.1 m.

Type: Passenger vessel. MMSI: 308322000.

Date/timePositionNaut miles runAvg speedWind from/ knotsBaromVisibWave heightAir tempDewpointWater temp
2016-Jul-01 04:33N 55°42' E 012°36'9 8.5
2016-Jul-01 03:34N 55°50' E 012°42'1212.2
2016-Jul-01 02:34N 56°02' E 012°38'1111.5
2016-Jul-01 01:34N 56°10' E 012°24'1413.7
2016-Jul-01 00:33N 56°18' E 012°04'6113.8
2016-Jun-30 20:10N 57°16' E 011°31'813.7
2016-Jun-30 19:33N 57°24' E 011°27'1313.2
2016-Jun-30 18:33N 57°33' E 011°09'1413.7
2016-Jun-30 17:30N 57°39' E 010°45'6 1.0
2016-Jun-30 11:21N 57°43' E 010°36'5 6.2
2016-Jun-30 10:33N 57°47' E 010°41'11418.1
2016-Jun-30 04:17N 57°44' E 007°08'1317.5
2016-Jun-30 03:33N 57°45' E 006°44'1616.2
2016-Jun-30 02:33N 57°52' E 006°16'1515.6
2016-Jun-30 01:34N 58°02' E 005°55'1515.1
2016-Jun-30 00:33N 58°12' E 005°33'1616.0
2016-Jun-29 23:33N 58°23' E 005°11'1817.6
2016-Jun-29 22:33N 58°36' E 004°48'1817.8
2016-Jun-29 21:32N 58°49' E 004°23'  
2016-Jun-26 20:29N 63°32' E 009°13'1314.0
2016-Jun-26 19:33N 63°39' E 009°37'1111.2
2016-Jun-26 18:34N 63°30' E 009°54'1313.0
2016-Jun-26 17:33N 63°26' E 010°22'0 0.4
2016-Jun-26 16:31N 63°26' E 010°22'0 0.0
2016-Jun-26 15:31N 63°26' E 010°22'0 0.0
2016-Jun-26 14:31N 63°26' E 010°22'0 0.0
2016-Jun-26 13:31N 63°26' E 010°22'0 0.0
2016-Jun-26 12:31N 63°26' E 010°22'0 0.0
2016-Jun-26 11:31N 63°26' E 010°22'3 3.2
2016-Jun-26 10:34N 63°28' E 010°16'1413.3
2016-Jun-26 09:33N 63°34' E 009°50'1110.8
2016-Jun-26 08:33N 63°37' E 009°27'1311.8
2016-Jun-26 07:27N 63°49' E 009°16'16816.4
2016-Jun-25 21:13N 66°27' E 011°33'1116.8
2016-Jun-25 20:33N 66°36' E 011°48'5316.9
2016-Jun-25 17:25N 67°19' E 013°07'1517.6
2016-Jun-25 16:34N 67°32' E 013°30'1817.8
2016-Jun-25 15:33N 67°46' E 013°58'  
2016-Jun-22 13:10N 69°20' E 018°01'711.9
2016-Jun-22 12:34N 69°12' E 018°00'1615.5
2016-Jun-22 11:32N 69°04' E 017°22'2017.7
2016-Jun-22 10:25N 68°48' E 016°50'6212.8
2016-Jun-22 05:33N 68°11' E 014°34'3 2.6
2016-Jun-22 04:33N 68°09' E 014°30'10 9.9
2016-Jun-22 03:33N 68°00' E 014°18'1110.8
2016-Jun-22 02:33N 67°51' E 014°03'1313.5
2016-Jun-22 01:33N 67°37' E 014°04'1211.8
2016-Jun-22 00:31N 67°28' E 014°23'1212.0
2016-Jun-21 23:33N 67°17' E 014°14'1514.5
2016-Jun-21 22:33N 67°04' E 013°55'1313.0
2016-Jun-21 21:32N 66°55' E 013°29'1111.3
2016-Jun-21 20:33N 66°46' E 013°14'1613.5
2016-Jun-21 19:23N 66°32' E 012°58'1214.7
2016-Jun-21 18:33N 66°19' E 012°57'6214.8
2016-Jun-21 14:23N 65°22' E 012°03'1315.3
2016-Jun-21 13:34N 65°10' E 011°51'1414.2
2016-Jun-21 12:33N 64°58' E 011°34'1313.5
2016-Jun-21 11:33N 64°49' E 011°09'8213.6
2016-Jun-21 05:33N 63°40' E 009°29'  
Track history (hours):
 
Tides and Currents Weather Stations Pressure Air Temp Water Temp Dewpoint Dewpoint Depression Visibility Wind Speed Wind Dir Waves Ship Positions

Christina O

Operator: V Ships Leisure SAM

Last reported at 2016-Jul-01 04:33 UTC. Time now 2016-Jul-01 06:27 UTC.
Position N 55°42' E 012°36'.

Length 186 m; draft 6.1 m.

Type: Passenger vessel. MMSI: 308322000.

Date/timePositionNaut miles runAvg speedWind from/ knotsBaromVisibWave heightAir tempDewpointWater temp
2016-Jul-01 04:33N 55°42' E 012°36'9 8.5
2016-Jul-01 03:34N 55°50' E 012°42'1212.2
2016-Jul-01 02:34N 56°02' E 012°38'1111.5
2016-Jul-01 01:34N 56°10' E 012°24'1413.7
2016-Jul-01 00:33N 56°18' E 012°04'6113.8
2016-Jun-30 20:10N 57°16' E 011°31'813.7
2016-Jun-30 19:33N 57°24' E 011°27'1313.2
2016-Jun-30 18:33N 57°33' E 011°09'1413.7
2016-Jun-30 17:30N 57°39' E 010°45'6 1.0
2016-Jun-30 11:21N 57°43' E 010°36'5 6.2
2016-Jun-30 10:33N 57°47' E 010°41'11418.1
2016-Jun-30 04:17N 57°44' E 007°08'1317.5
2016-Jun-30 03:33N 57°45' E 006°44'1616.2
2016-Jun-30 02:33N 57°52' E 006°16'1515.6
2016-Jun-30 01:34N 58°02' E 005°55'1515.1
2016-Jun-30 00:33N 58°12' E 005°33'1616.0
2016-Jun-29 23:33N 58°23' E 005°11'1817.6
2016-Jun-29 22:33N 58°36' E 004°48'1817.8
2016-Jun-29 21:32N 58°49' E 004°23'  
2016-Jun-26 20:29N 63°32' E 009°13'1314.0
2016-Jun-26 19:33N 63°39' E 009°37'1111.2
2016-Jun-26 18:34N 63°30' E 009°54'1313.0
2016-Jun-26 17:33N 63°26' E 010°22'0 0.4
2016-Jun-26 16:31N 63°26' E 010°22'0 0.0
2016-Jun-26 15:31N 63°26' E 010°22'0 0.0
2016-Jun-26 14:31N 63°26' E 010°22'0 0.0
2016-Jun-26 13:31N 63°26' E 010°22'0 0.0
2016-Jun-26 12:31N 63°26' E 010°22'0 0.0
2016-Jun-26 11:31N 63°26' E 010°22'3 3.2
2016-Jun-26 10:34N 63°28' E 010°16'1413.3
2016-Jun-26 09:33N 63°34' E 009°50'1110.8
2016-Jun-26 08:33N 63°37' E 009°27'1311.8
2016-Jun-26 07:27N 63°49' E 009°16'16816.4
2016-Jun-25 21:13N 66°27' E 011°33'1116.8
2016-Jun-25 20:33N 66°36' E 011°48'5316.9
2016-Jun-25 17:25N 67°19' E 013°07'1517.6
2016-Jun-25 16:34N 67°32' E 013°30'1817.8
2016-Jun-25 15:33N 67°46' E 013°58'  
2016-Jun-22 13:10N 69°20' E 018°01'711.9
2016-Jun-22 12:34N 69°12' E 018°00'1615.5
2016-Jun-22 11:32N 69°04' E 017°22'2017.7
2016-Jun-22 10:25N 68°48' E 016°50'6212.8
2016-Jun-22 05:33N 68°11' E 014°34'3 2.6
2016-Jun-22 04:33N 68°09' E 014°30'10 9.9
2016-Jun-22 03:33N 68°00' E 014°18'1110.8
2016-Jun-22 02:33N 67°51' E 014°03'1313.5
2016-Jun-22 01:33N 67°37' E 014°04'1211.8
2016-Jun-22 00:31N 67°28' E 014°23'1212.0
2016-Jun-21 23:33N 67°17' E 014°14'1514.5
2016-Jun-21 22:33N 67°04' E 013°55'1313.0
2016-Jun-21 21:32N 66°55' E 013°29'1111.3
2016-Jun-21 20:33N 66°46' E 013°14'1613.5
2016-Jun-21 19:23N 66°32' E 012°58'1214.7
2016-Jun-21 18:33N 66°19' E 012°57'6214.8
2016-Jun-21 14:23N 65°22' E 012°03'1315.3
2016-Jun-21 13:34N 65°10' E 011°51'1414.2
2016-Jun-21 12:33N 64°58' E 011°34'1313.5
2016-Jun-21 11:33N 64°49' E 011°09'8213.6
2016-Jun-21 05:33N 63°40' E 009°29'  

Dump ship's entire track history